createdAt,value
2023-04-20T00:01:43.550Z,9.75
2023-04-20T00:04:10.370Z,9.70
2023-04-20T00:06:37.736Z,9.68
2023-04-20T00:09:05.064Z,9.65
2023-04-20T00:11:31.913Z,9.63
2023-04-20T00:13:58.841Z,9.61
2023-04-20T00:16:25.744Z,9.60
2023-04-20T00:18:52.794Z,9.61
2023-04-20T00:21:23.808Z,9.59
2023-04-20T00:23:50.626Z,9.56
2023-04-20T00:26:17.658Z,9.52
2023-04-20T00:28:45.837Z,9.48
2023-04-20T00:31:12.917Z,9.41
2023-04-20T00:33:42.801Z,9.36
2023-04-20T00:36:09.826Z,9.34
2023-04-20T00:38:37.103Z,9.27
2023-04-20T00:41:04.149Z,9.19
2023-04-20T00:43:32.024Z,9.10
2023-04-20T00:45:58.974Z,9.05
2023-04-20T00:48:26.099Z,9.02
2023-04-20T00:50:53.066Z,8.99
2023-04-20T00:53:20.684Z,8.95
2023-04-20T00:55:50.452Z,8.91
2023-04-20T00:58:18.589Z,8.88
2023-04-20T01:00:45.583Z,8.85
2023-04-20T01:03:12.526Z,8.80
2023-04-20T01:05:40.865Z,8.75
2023-04-20T01:08:08.210Z,8.69
2023-04-20T01:10:35.686Z,8.66
2023-04-20T01:13:03.445Z,8.62
2023-04-20T01:15:30.369Z,8.56
2023-04-20T01:17:57.507Z,8.53
2023-04-20T01:20:24.672Z,8.51
2023-04-20T01:22:54.207Z,8.50
2023-04-20T01:25:21.540Z,8.48
2023-04-20T01:27:48.474Z,8.48
2023-04-20T01:30:16.657Z,8.45
2023-04-20T01:32:44.188Z,8.43
2023-04-20T01:35:11.666Z,8.41
2023-04-20T01:37:39.696Z,8.39
2023-04-20T01:40:10.846Z,8.37
2023-04-20T01:42:40.700Z,8.35
2023-04-20T01:45:08.216Z,8.33
2023-04-20T01:47:36.439Z,8.33
2023-04-20T01:50:03.674Z,8.32
2023-04-20T01:52:30.820Z,8.32
2023-04-20T01:54:57.662Z,8.33
2023-04-20T01:57:25.443Z,8.34
2023-04-20T01:59:52.291Z,8.32
2023-04-20T02:02:19.189Z,8.28
2023-04-20T02:04:46.315Z,8.27
2023-04-20T02:07:13.117Z,8.26
2023-04-20T02:09:42.919Z,8.26
2023-04-20T02:12:10.078Z,8.29
2023-04-20T02:14:39.932Z,8.29
2023-04-20T02:17:10.147Z,8.30
2023-04-20T02:19:37.354Z,8.29
2023-04-20T02:22:04.335Z,8.30
2023-04-20T02:24:31.065Z,8.33
2023-04-20T02:26:58.216Z,8.35
2023-04-20T02:29:28.093Z,8.35
2023-04-20T02:31:54.808Z,8.36
2023-04-20T02:34:22.104Z,8.37
2023-04-20T02:36:49.164Z,8.33
2023-04-20T02:39:16.343Z,8.30
2023-04-20T02:41:43.642Z,8.28
2023-04-20T02:44:10.509Z,8.26
2023-04-20T02:46:40.869Z,8.22
2023-04-20T02:49:07.827Z,8.19
2023-04-20T02:51:38.106Z,8.19
2023-04-20T02:54:05.842Z,8.19
2023-04-20T02:56:32.995Z,8.17
2023-04-20T02:59:04.234Z,8.15
2023-04-20T03:01:49.756Z,8.14
2023-04-20T03:04:21.747Z,8.12
2023-04-20T03:06:55.334Z,8.11
2023-04-20T03:09:27.355Z,8.11
2023-04-20T03:12:02.471Z,8.11
2023-04-20T03:14:49.707Z,8.12
2023-04-20T03:17:17.365Z,8.14
2023-04-20T03:19:44.151Z,8.16
2023-04-20T03:22:11.358Z,8.15
2023-04-20T03:24:38.390Z,8.14
2023-04-20T03:27:14.359Z,8.12
2023-04-20T03:29:55.322Z,8.12
2023-04-20T03:32:22.620Z,8.12
2023-04-20T03:34:50.134Z,8.12
2023-04-20T03:37:17.178Z,8.13
2023-04-20T03:39:47.151Z,8.13
2023-04-20T03:42:13.954Z,8.14
2023-04-20T03:44:41.699Z,8.13
2023-04-20T03:47:09.680Z,8.12
2023-04-20T03:49:38.052Z,8.13
2023-04-20T03:52:08.773Z,8.13
2023-04-20T03:54:36.122Z,8.14
2023-04-20T03:57:03.386Z,8.15
2023-04-20T03:59:30.433Z,8.13
2023-04-20T04:02:29.718Z,8.11
2023-04-20T04:04:57.147Z,8.10
2023-04-20T04:07:24.345Z,8.09
2023-04-20T04:09:51.439Z,8.09
2023-04-20T04:12:18.332Z,8.10
2023-04-20T04:15:20.407Z,8.11
2023-04-20T04:17:53.902Z,8.11
2023-04-20T04:20:21.454Z,8.11
2023-04-20T04:22:48.645Z,8.13
2023-04-20T04:25:41.888Z,8.14
2023-04-20T04:28:10.784Z,8.14
2023-04-20T04:30:42.330Z,8.18
2023-04-20T04:33:14.761Z,8.22
2023-04-20T04:35:43.339Z,8.24
2023-04-20T04:38:13.703Z,8.25
2023-04-20T04:40:45.225Z,8.24
2023-04-20T04:43:12.329Z,8.24
2023-04-20T04:45:41.280Z,8.25
2023-04-20T04:48:11.588Z,8.21
2023-04-20T04:50:40.507Z,8.19
2023-04-20T04:53:07.444Z,8.20
2023-04-20T04:55:37.383Z,8.23
2023-04-20T04:58:04.153Z,8.25
2023-04-20T05:00:34.523Z,8.27
2023-04-20T05:03:05.631Z,8.27
2023-04-20T05:05:34.831Z,8.27
2023-04-20T05:08:01.452Z,8.25
2023-04-20T05:10:28.254Z,8.24
2023-04-20T05:13:16.082Z,8.25
2023-04-20T05:15:43.947Z,8.26
2023-04-20T05:18:14.284Z,8.28
2023-04-20T05:21:04.239Z,8.32
2023-04-20T05:23:31.508Z,8.37
2023-04-20T05:26:03.698Z,8.41
2023-04-20T05:28:53.243Z,8.46
2023-04-20T05:31:20.260Z,8.48
2023-04-20T05:33:47.492Z,8.50
2023-04-20T05:36:14.526Z,8.51
2023-04-20T05:38:41.399Z,8.54
2023-04-20T05:41:08.895Z,8.55
2023-04-20T05:43:36.057Z,8.58
2023-04-20T05:46:23.929Z,8.58
2023-04-20T05:48:51.468Z,8.59
2023-04-20T05:51:18.258Z,8.61
2023-04-20T05:53:45.429Z,8.63
2023-04-20T05:56:13.312Z,8.68
2023-04-20T05:58:40.646Z,8.71
2023-04-20T06:01:07.685Z,8.73
2023-04-20T06:03:35.297Z,8.74
2023-04-20T06:06:02.894Z,8.76
2023-04-20T06:08:30.569Z,8.78
2023-04-20T06:10:58.559Z,8.82
2023-04-20T06:13:25.701Z,8.88
2023-04-20T06:15:55.529Z,8.96
2023-04-20T06:18:25.819Z,9.01
2023-04-20T06:20:53.078Z,9.08
2023-04-20T06:23:20.600Z,9.18
2023-04-20T06:25:47.536Z,9.28
2023-04-20T06:28:14.523Z,9.38
2023-04-20T06:30:44.416Z,9.49
2023-04-20T06:33:16.497Z,9.62
2023-04-20T06:35:43.495Z,9.73
2023-04-20T06:38:10.503Z,9.88
2023-04-20T06:40:37.501Z,10.09
2023-04-20T06:43:04.801Z,10.36
2023-04-20T06:45:33.623Z,10.66
2023-04-20T06:48:01.761Z,10.96
2023-04-20T06:50:29.233Z,11.18
2023-04-20T06:52:59.056Z,11.36
2023-04-20T06:55:27.686Z,11.55
2023-04-20T06:57:57.522Z,11.75
2023-04-20T07:00:27.954Z,11.91
2023-04-20T07:02:55.569Z,12.06
2023-04-20T07:05:23.090Z,12.18
2023-04-20T07:07:50.919Z,12.29
2023-04-20T07:10:18.588Z,12.41
2023-04-20T07:12:45.626Z,12.48
2023-04-20T07:15:13.102Z,12.47
2023-04-20T07:17:40.466Z,12.48
2023-04-20T07:20:10.932Z,12.52
2023-04-20T07:22:38.559Z,12.57
2023-04-20T07:25:07.539Z,12.61
2023-04-20T07:27:37.121Z,12.67
2023-04-20T07:30:06.039Z,12.71
2023-04-20T07:32:34.763Z,12.70
2023-04-20T07:35:02.819Z,12.69
2023-04-20T07:37:33.770Z,12.72
2023-04-20T07:40:01.604Z,12.75
2023-04-20T07:42:29.143Z,12.80
2023-04-20T07:44:56.093Z,12.89
2023-04-20T07:47:23.420Z,12.95
2023-04-20T07:49:50.591Z,12.94
2023-04-20T07:52:20.176Z,12.90
2023-04-20T07:54:47.505Z,12.91
2023-04-20T07:57:15.025Z,12.91
2023-04-20T07:59:41.943Z,12.87
2023-04-20T08:02:09.186Z,12.84
2023-04-20T08:04:40.560Z,12.81
2023-04-20T08:07:07.873Z,12.85
2023-04-20T08:09:35.300Z,13.03
2023-04-20T08:12:02.716Z,13.27
2023-04-20T08:14:30.531Z,13.42
2023-04-20T08:16:57.510Z,13.46
2023-04-20T08:19:24.312Z,13.40
2023-04-20T08:21:52.034Z,13.26
2023-04-20T08:24:20.240Z,13.13
2023-04-20T08:26:47.517Z,12.98
2023-04-20T08:29:15.018Z,12.80
2023-04-20T08:31:41.896Z,12.63
2023-04-20T08:34:12.628Z,12.41
2023-04-20T08:36:40.175Z,12.21
2023-04-20T08:39:08.900Z,12.06
2023-04-20T08:41:36.101Z,11.92
2023-04-20T08:44:03.658Z,11.76
2023-04-20T08:46:30.728Z,11.60
2023-04-20T08:48:57.841Z,11.48
2023-04-20T08:51:25.110Z,11.42
2023-04-20T08:53:51.887Z,11.35
2023-04-20T08:56:19.036Z,11.25
2023-04-20T08:58:46.171Z,11.13
2023-04-20T09:01:17.510Z,11.03
2023-04-20T09:03:47.106Z,10.99
2023-04-20T09:06:17.326Z,10.97
2023-04-20T09:09:05.858Z,10.98
2023-04-20T09:11:53.587Z,10.99
2023-04-20T09:14:25.166Z,10.99
2023-04-20T09:17:04.791Z,11.00
2023-04-20T09:19:33.563Z,10.99
2023-04-20T09:22:04.652Z,10.94
2023-04-20T09:59:43.110Z,10.52
2023-04-20T10:02:12.688Z,10.59
2023-04-20T10:04:57.988Z,10.59
2023-04-20T10:07:30.006Z,10.56
2023-04-20T10:10:15.802Z,10.55
2023-04-20T10:12:51.282Z,10.58
2023-04-20T10:15:22.033Z,10.60
2023-04-20T10:17:51.834Z,10.60
2023-04-20T10:20:21.172Z,10.60
2023-04-20T10:22:53.673Z,10.59
2023-04-20T10:25:24.941Z,10.59
2023-04-20T10:28:00.621Z,10.59
2023-04-20T10:53:33.024Z,10.90
2023-04-20T10:56:01.773Z,10.96
2023-04-20T10:58:35.645Z,10.98
2023-04-20T11:01:06.198Z,10.96
2023-04-20T11:03:37.258Z,10.90
2023-04-20T11:06:09.549Z,10.85
2023-04-20T11:08:40.744Z,10.81
2023-04-20T11:11:25.669Z,10.76
2023-04-20T11:14:08.341Z,10.68
2023-04-20T11:16:48.584Z,10.61
2023-04-20T11:19:33.527Z,10.58
2023-04-20T11:22:02.538Z,10.59
2023-04-20T11:24:33.048Z,10.59
2023-04-20T11:27:02.044Z,10.56
2023-04-20T11:29:30.525Z,10.52
2023-04-20T11:32:00.059Z,10.48
2023-04-20T11:34:28.940Z,10.46
2023-04-20T11:37:07.695Z,10.45
2023-04-20T11:39:37.742Z,10.41
2023-04-20T11:42:09.204Z,10.39
2023-04-20T11:44:41.388Z,10.37
2023-04-20T11:47:10.183Z,10.37
2023-04-20T11:49:42.401Z,10.36
2023-04-20T11:52:11.699Z,10.33
2023-04-20T11:54:40.174Z,10.30
2023-04-20T11:57:08.720Z,10.29
2023-04-20T11:59:37.387Z,10.30
2023-04-20T12:02:06.279Z,10.32
2023-04-20T12:04:39.352Z,10.37
2023-04-20T12:07:07.876Z,10.39
2023-04-20T12:09:38.435Z,10.37
2023-04-20T12:12:08.796Z,10.33
2023-04-20T12:14:40.264Z,10.31
2023-04-20T12:17:09.290Z,10.31
2023-04-20T12:19:38.335Z,10.33
2023-04-20T12:22:07.466Z,10.36
2023-04-20T12:24:36.643Z,10.35
2023-04-20T12:27:06.302Z,10.36
2023-04-20T12:29:34.768Z,10.35
2023-04-20T12:32:03.431Z,10.31
2023-04-20T12:34:32.514Z,10.24
2023-04-20T12:37:01.637Z,10.21
2023-04-20T12:39:33.392Z,10.21
2023-04-20T12:42:22.320Z,10.21
2023-04-20T12:44:54.494Z,10.24
2023-04-20T12:47:23.072Z,10.26
2023-04-20T12:49:51.948Z,10.28
2023-04-20T12:52:20.833Z,10.28
2023-04-20T12:54:50.071Z,10.28
2023-04-20T12:57:18.356Z,10.29
2023-04-20T12:59:48.910Z,10.27
2023-04-20T13:02:17.865Z,10.22
2023-04-20T13:04:47.146Z,10.18
2023-04-20T13:07:16.017Z,10.15
2023-04-20T13:09:46.102Z,10.11
2023-04-20T13:12:16.193Z,10.08
2023-04-20T13:14:47.514Z,10.04
2023-04-20T13:17:17.210Z,10.00
2023-04-20T13:19:49.771Z,9.95
2023-04-20T13:22:19.543Z,9.89
2023-04-20T13:24:48.801Z,9.85
2023-04-20T13:27:20.472Z,9.80
2023-04-20T13:29:50.583Z,9.75
2023-04-20T13:32:19.486Z,9.68
2023-04-20T13:34:48.299Z,9.59
2023-04-20T13:37:16.869Z,9.49
2023-04-20T13:39:45.416Z,9.39
2023-04-20T13:42:13.954Z,9.34
2023-04-20T13:45:03.531Z,9.27
2023-04-20T13:47:32.407Z,9.22
2023-04-20T13:50:03.789Z,9.18
2023-04-20T13:52:32.821Z,9.14
2023-04-20T13:55:04.897Z,9.12
2023-04-20T13:57:33.469Z,9.11
2023-04-20T14:00:02.599Z,9.08
2023-04-20T14:02:33.965Z,9.05
2023-04-20T14:05:04.266Z,9.01
2023-04-20T14:07:33.212Z,8.95
2023-04-20T14:10:02.003Z,8.92
2023-04-20T14:12:30.858Z,8.87
2023-04-20T14:14:59.552Z,8.82
2023-04-20T14:17:27.916Z,8.82
2023-04-20T14:19:56.877Z,8.86
2023-04-20T14:22:25.097Z,8.87
2023-04-20T14:24:53.251Z,8.89
2023-04-20T14:27:21.582Z,8.90
2023-04-20T14:29:51.144Z,8.88
2023-04-20T14:32:19.798Z,8.87
2023-04-20T14:34:48.269Z,8.87
2023-04-20T14:37:16.496Z,8.87
2023-04-20T14:39:44.842Z,8.88
2023-04-20T14:47:08.093Z,8.96
2023-04-20T18:13:44.685Z,9.49
2023-04-20T20:47:21.916Z,9.67
2023-04-20T20:49:50.420Z,9.64
2023-04-20T20:52:18.680Z,9.63
2023-04-20T20:54:47.387Z,9.60
2023-04-20T20:57:15.647Z,9.58
2023-04-20T20:59:43.921Z,9.55
2023-04-20T21:02:12.454Z,9.54
2023-04-20T21:04:40.983Z,9.52
2023-04-20T21:07:09.566Z,9.50
2023-04-20T21:09:38.226Z,9.48
2023-04-20T21:12:07.363Z,9.44
2023-04-20T21:14:37.468Z,9.42
2023-04-20T21:17:05.838Z,9.42
2023-04-20T21:19:35.250Z,9.42
2023-04-20T21:22:03.728Z,9.44
2023-04-20T21:32:07.928Z,9.49
2023-04-20T21:34:36.590Z,9.46
2023-04-20T21:37:05.817Z,9.44
2023-04-20T21:39:34.596Z,9.41
2023-04-20T21:42:03.747Z,9.38
2023-04-20T21:44:32.064Z,9.36
2023-04-20T21:54:42.142Z,9.23
2023-04-20T21:57:10.625Z,9.16
2023-04-20T21:59:38.943Z,9.13
2023-04-20T22:02:07.470Z,9.09
2023-04-20T22:04:36.065Z,9.06
2023-04-20T22:07:04.600Z,9.04
2023-04-20T22:09:33.109Z,9.04
2023-04-20T22:12:02.159Z,9.05
2023-04-20T22:14:31.204Z,9.04
2023-04-20T22:16:59.749Z,9.01
2023-04-20T22:19:29.151Z,8.98
2023-04-20T22:21:57.384Z,8.95
2023-04-20T22:24:25.790Z,8.91
2023-04-20T22:26:53.946Z,8.86
2023-04-20T22:35:54.081Z,8.75
2023-04-20T22:38:22.385Z,8.71
2023-04-20T22:40:50.833Z,8.70
2023-04-20T22:43:22.018Z,8.67
2023-04-20T22:45:50.359Z,8.62
2023-04-20T22:48:19.347Z,8.58
2023-04-20T22:50:47.832Z,8.54
2023-04-20T22:53:16.001Z,8.50
2023-04-20T22:55:44.613Z,8.47
2023-04-20T22:58:13.171Z,8.45
2023-04-20T23:00:41.734Z,8.46
2023-04-20T23:03:10.505Z,8.47
2023-04-20T23:05:39.429Z,8.48
2023-04-20T23:08:11.425Z,8.44
2023-04-20T23:10:41.121Z,8.38
2023-04-20T23:13:16.449Z,8.34
2023-04-20T23:15:44.991Z,8.29
2023-04-20T23:18:13.530Z,8.20
2023-04-20T23:20:42.496Z,8.07
2023-04-20T23:23:11.738Z,7.92
2023-04-20T23:33:16.472Z,7.89
2023-04-20T23:35:44.725Z,7.90
2023-04-20T23:38:12.970Z,7.92
2023-04-20T23:40:44.250Z,7.94
2023-04-20T23:43:12.645Z,7.92
2023-04-20T23:45:40.939Z,7.90
2023-04-20T23:48:09.505Z,7.84
2023-04-20T23:50:38.086Z,7.82
2023-04-20T23:53:07.694Z,7.83
2023-04-20T23:55:36.202Z,7.84
2023-04-20T23:58:04.450Z,7.84
